sensor_id;sensor_type;location;lat;lon;timestamp;temperature;humidity
69324;DHT22;56470;47.350;8.718;2023-02-01T00:00:00;5.08;68.42
69324;DHT22;56470;47.350;8.718;2023-02-01T00:02:26;5.10;68.42
69324;DHT22;56470;47.350;8.718;2023-02-01T00:04:51;5.13;68.32
69324;DHT22;56470;47.350;8.718;2023-02-01T00:07:16;5.08;68.29
69324;DHT22;56470;47.350;8.718;2023-02-01T00:09:42;5.04;68.35
69324;DHT22;56470;47.350;8.718;2023-02-01T00:12:07;5.01;68.40
69324;DHT22;56470;47.350;8.718;2023-02-01T00:14:32;5.03;68.27
69324;DHT22;56470;47.350;8.718;2023-02-01T00:17:04;5.07;68.19
69324;DHT22;56470;47.350;8.718;2023-02-01T00:19:30;5.00;68.28
69324;DHT22;56470;47.350;8.718;2023-02-01T00:21:55;5.04;68.29
69324;DHT22;56470;47.350;8.718;2023-02-01T00:24:21;5.07;68.23
69324;DHT22;56470;47.350;8.718;2023-02-01T00:26:46;5.04;68.24
69324;DHT22;56470;47.350;8.718;2023-02-01T00:29:15;5.03;68.24
69324;DHT22;56470;47.350;8.718;2023-02-01T00:31:41;5.10;68.20
69324;DHT22;56470;47.350;8.718;2023-02-01T00:34:07;5.15;68.06
69324;DHT22;56470;47.350;8.718;2023-02-01T00:36:33;5.15;68.02
69324;DHT22;56470;47.350;8.718;2023-02-01T00:38:59;5.14;67.91
69324;DHT22;56470;47.350;8.718;2023-02-01T00:41:24;5.14;67.79
69324;DHT22;56470;47.350;8.718;2023-02-01T00:43:50;5.08;67.88
69324;DHT22;56470;47.350;8.718;2023-02-01T00:46:17;5.07;67.83
69324;DHT22;56470;47.350;8.718;2023-02-01T00:48:43;5.00;68.02
69324;DHT22;56470;47.350;8.718;2023-02-01T00:51:14;5.03;68.05
69324;DHT22;56470;47.350;8.718;2023-02-01T00:53:40;5.04;68.01
69324;DHT22;56470;47.350;8.718;2023-02-01T00:56:06;5.07;67.96
69324;DHT22;56470;47.350;8.718;2023-02-01T00:58:32;5.06;67.99
69324;DHT22;56470;47.350;8.718;2023-02-01T01:01:22;5.07;67.95
69324;DHT22;56470;47.350;8.718;2023-02-01T01:03:50;5.06;67.88
69324;DHT22;56470;47.350;8.718;2023-02-01T01:06:19;5.07;67.77
69324;DHT22;56470;47.350;8.718;2023-02-01T01:08:44;5.06;67.75
69324;DHT22;56470;47.350;8.718;2023-02-01T01:11:12;5.03;67.93
69324;DHT22;56470;47.350;8.718;2023-02-01T01:13:38;5.08;67.85
69324;DHT22;56470;47.350;8.718;2023-02-01T01:16:05;5.13;67.76
69324;DHT22;56470;47.350;8.718;2023-02-01T01:18:31;5.13;67.66
69324;DHT22;56470;47.350;8.718;2023-02-01T01:20:57;5.18;67.63
69324;DHT22;56470;47.350;8.718;2023-02-01T01:23:22;5.25;67.71
69324;DHT22;56470;47.350;8.718;2023-02-01T01:25:48;5.31;67.56
69324;DHT22;56470;47.350;8.718;2023-02-01T01:28:16;5.35;67.50
69324;DHT22;56470;47.350;8.718;2023-02-01T01:30:41;5.39;67.40
69324;DHT22;56470;47.350;8.718;2023-02-01T01:33:07;5.45;67.10
69324;DHT22;56470;47.350;8.718;2023-02-01T01:35:33;5.45;67.02
69324;DHT22;56470;47.350;8.718;2023-02-01T01:37:59;5.45;66.87
69324;DHT22;56470;47.350;8.718;2023-02-01T01:40:26;5.43;66.82
69324;DHT22;56470;47.350;8.718;2023-02-01T01:42:51;5.42;66.88
69324;DHT22;56470;47.350;8.718;2023-02-01T01:45:31;5.39;66.44
69324;DHT22;56470;47.350;8.718;2023-02-01T01:47:59;5.38;66.76
69324;DHT22;56470;47.350;8.718;2023-02-01T01:50:39;5.36;66.62
69324;DHT22;56470;47.350;8.718;2023-02-01T01:53:07;5.38;66.46
69324;DHT22;56470;47.350;8.718;2023-02-01T01:55:36;5.34;66.74
69324;DHT22;56470;47.350;8.718;2023-02-01T01:58:05;5.34;66.77
69324;DHT22;56470;47.350;8.718;2023-02-01T02:00:31;5.34;66.72
69324;DHT22;56470;47.350;8.718;2023-02-01T02:03:01;5.30;66.86
69324;DHT22;56470;47.350;8.718;2023-02-01T02:05:29;5.32;66.81
69324;DHT22;56470;47.350;8.718;2023-02-01T02:07:58;5.32;66.86
69324;DHT22;56470;47.350;8.718;2023-02-01T02:10:26;5.35;66.72
69324;DHT22;56470;47.350;8.718;2023-02-01T02:13:13;5.35;66.66
69324;DHT22;56470;47.350;8.718;2023-02-01T02:15:45;5.38;66.67
69324;DHT22;56470;47.350;8.718;2023-02-01T02:18:19;5.36;66.64
69324;DHT22;56470;47.350;8.718;2023-02-01T02:26:44;5.34;66.20
69324;DHT22;56470;47.350;8.718;2023-02-01T02:34:57;5.23;66.03
69324;DHT22;56470;47.350;8.718;2023-02-01T02:37:38;5.18;66.27
69324;DHT22;56470;47.350;8.718;2023-02-01T02:40:18;5.06;65.85
69324;DHT22;56470;47.350;8.718;2023-02-01T02:45:55;4.94;66.67
69324;DHT22;56470;47.350;8.718;2023-02-01T02:48:54;4.89;66.75
69324;DHT22;56470;47.350;8.718;2023-02-01T02:51:35;4.77;66.59
69324;DHT22;56470;47.350;8.718;2023-02-01T02:54:25;4.70;66.73
69324;DHT22;56470;47.350;8.718;2023-02-01T02:57:13;4.61;66.91
69324;DHT22;56470;47.350;8.718;2023-02-01T03:00:00;4.55;67.03
69324;DHT22;56470;47.350;8.718;2023-02-01T03:02:46;4.49;67.21
69324;DHT22;56470;47.350;8.718;2023-02-01T03:05:35;4.46;67.24
69324;DHT22;56470;47.350;8.718;2023-02-01T03:11:00;4.44;67.43
69324;DHT22;56470;47.350;8.718;2023-02-01T03:13:49;4.40;67.46
69324;DHT22;56470;47.350;8.718;2023-02-01T03:16:30;4.30;67.49
69324;DHT22;56470;47.350;8.718;2023-02-01T03:19:09;4.17;67.54
69324;DHT22;56470;47.350;8.718;2023-02-01T03:21:38;4.07;68.04
69324;DHT22;56470;47.350;8.718;2023-02-01T03:24:10;3.93;68.46
69324;DHT22;56470;47.350;8.718;2023-02-01T03:26:41;3.89;68.70
69324;DHT22;56470;47.350;8.718;2023-02-01T03:29:23;3.90;68.87
69324;DHT22;56470;47.350;8.718;2023-02-01T03:31:50;3.93;68.86
69324;DHT22;56470;47.350;8.718;2023-02-01T03:34:22;3.97;68.88
69324;DHT22;56470;47.350;8.718;2023-02-01T03:37:09;3.99;68.82
69324;DHT22;56470;47.350;8.718;2023-02-01T03:39:58;4.10;68.79
69324;DHT22;56470;47.350;8.718;2023-02-01T03:42:35;4.18;68.64
69324;DHT22;56470;47.350;8.718;2023-02-01T03:45:20;4.25;68.50
69324;DHT22;56470;47.350;8.718;2023-02-01T03:47:50;4.31;68.43
69324;DHT22;56470;47.350;8.718;2023-02-01T03:50:21;4.35;68.21
69324;DHT22;56470;47.350;8.718;2023-02-01T03:52:52;4.35;68.27
69324;DHT22;56470;47.350;8.718;2023-02-01T03:55:21;4.37;68.25
69324;DHT22;56470;47.350;8.718;2023-02-01T03:57:58;4.31;68.29
69324;DHT22;56470;47.350;8.718;2023-02-01T04:00:25;4.24;68.45
69324;DHT22;56470;47.350;8.718;2023-02-01T04:02:52;4.18;68.73
69324;DHT22;56470;47.350;8.718;2023-02-01T04:05:20;4.21;68.80
69324;DHT22;56470;47.350;8.718;2023-02-01T04:07:46;4.25;69.00
69324;DHT22;56470;47.350;8.718;2023-02-01T04:10:12;4.24;68.94
69324;DHT22;56470;47.350;8.718;2023-02-01T04:12:37;4.20;69.00
69324;DHT22;56470;47.350;8.718;2023-02-01T04:15:04;4.16;68.83
69324;DHT22;56470;47.350;8.718;2023-02-01T04:17:29;4.20;68.88
69324;DHT22;56470;47.350;8.718;2023-02-01T04:19:55;4.24;69.10
69324;DHT22;56470;47.350;8.718;2023-02-01T04:22:20;4.31;69.14
69324;DHT22;56470;47.350;8.718;2023-02-01T04:24:46;4.35;69.02
69324;DHT22;56470;47.350;8.718;2023-02-01T04:27:11;4.37;69.00
69324;DHT22;56470;47.350;8.718;2023-02-01T04:29:37;4.38;68.97
69324;DHT22;56470;47.350;8.718;2023-02-01T04:32:03;4.40;68.97
69324;DHT22;56470;47.350;8.718;2023-02-01T04:34:28;4.44;68.88
69324;DHT22;56470;47.350;8.718;2023-02-01T04:36:53;4.48;68.91
69324;DHT22;56470;47.350;8.718;2023-02-01T04:39:19;4.53;68.87
69324;DHT22;56470;47.350;8.718;2023-02-01T04:41:44;4.58;68.81
69324;DHT22;56470;47.350;8.718;2023-02-01T04:44:15;4.62;68.64
69324;DHT22;56470;47.350;8.718;2023-02-01T04:46:40;4.63;68.65
69324;DHT22;56470;47.350;8.718;2023-02-01T04:49:06;4.61;68.46
69324;DHT22;56470;47.350;8.718;2023-02-01T04:51:31;4.61;68.62
69324;DHT22;56470;47.350;8.718;2023-02-01T04:53:57;4.68;68.70
69324;DHT22;56470;47.350;8.718;2023-02-01T04:56:23;4.70;68.63
69324;DHT22;56470;47.350;8.718;2023-02-01T04:58:48;4.76;68.61
69324;DHT22;56470;47.350;8.718;2023-02-01T05:01:13;4.80;68.49
69324;DHT22;56470;47.350;8.718;2023-02-01T05:03:39;4.91;68.45
69324;DHT22;56470;47.350;8.718;2023-02-01T05:06:04;4.91;68.11
69324;DHT22;56470;47.350;8.718;2023-02-01T05:08:30;4.94;68.18
69324;DHT22;56470;47.350;8.718;2023-02-01T05:10:56;5.00;68.15
69324;DHT22;56470;47.350;8.718;2023-02-01T05:13:22;5.06;68.11
69324;DHT22;56470;47.350;8.718;2023-02-01T05:16:06;5.06;68.01
69324;DHT22;56470;47.350;8.718;2023-02-01T05:18:31;5.10;67.96
69324;DHT22;56470;47.350;8.718;2023-02-01T05:20:57;5.14;67.87
69324;DHT22;56470;47.350;8.718;2023-02-01T05:23:22;5.18;67.76
69324;DHT22;56470;47.350;8.718;2023-02-01T05:25:47;5.24;67.67
69324;DHT22;56470;47.350;8.718;2023-02-01T05:28:13;5.28;67.56
69324;DHT22;56470;47.350;8.718;2023-02-01T05:30:38;5.30;67.33
69324;DHT22;56470;47.350;8.718;2023-02-01T05:33:04;5.30;67.35
69324;DHT22;56470;47.350;8.718;2023-02-01T05:35:30;5.32;67.21
69324;DHT22;56470;47.350;8.718;2023-02-01T05:37:55;5.35;67.23
69324;DHT22;56470;47.350;8.718;2023-02-01T05:40:21;5.32;66.92
69324;DHT22;56470;47.350;8.718;2023-02-01T05:42:46;5.30;66.74
69324;DHT22;56470;47.350;8.718;2023-02-01T05:45:11;5.25;66.46
69324;DHT22;56470;47.350;8.718;2023-02-01T05:47:37;5.21;66.75
69324;DHT22;56470;47.350;8.718;2023-02-01T05:50:03;5.17;66.79
69324;DHT22;56470;47.350;8.718;2023-02-01T05:52:29;5.10;66.95
69324;DHT22;56470;47.350;8.718;2023-02-01T05:54:54;5.07;66.78
69324;DHT22;56470;47.350;8.718;2023-02-01T05:57:19;5.01;66.69
69324;DHT22;56470;47.350;8.718;2023-02-01T05:59:45;4.96;66.95
69324;DHT22;56470;47.350;8.718;2023-02-01T06:02:14;4.90;66.99
69324;DHT22;56470;47.350;8.718;2023-02-01T06:04:40;4.89;67.11
69324;DHT22;56470;47.350;8.718;2023-02-01T06:07:06;4.87;67.00
69324;DHT22;56470;47.350;8.718;2023-02-01T06:09:33;4.83;67.07
69324;DHT22;56470;47.350;8.718;2023-02-01T06:11:58;4.81;67.12
69324;DHT22;56470;47.350;8.718;2023-02-01T06:14:24;4.84;67.15
69324;DHT22;56470;47.350;8.718;2023-02-01T06:16:50;4.87;67.05
69324;DHT22;56470;47.350;8.718;2023-02-01T06:19:15;4.97;67.23
69324;DHT22;56470;47.350;8.718;2023-02-01T06:21:41;4.97;66.95
69324;DHT22;56470;47.350;8.718;2023-02-01T06:24:06;4.97;66.98
69324;DHT22;56470;47.350;8.718;2023-02-01T06:26:31;4.89;66.77
69324;DHT22;56470;47.350;8.718;2023-02-01T06:28:58;4.89;67.14
69324;DHT22;56470;47.350;8.718;2023-02-01T06:31:23;4.87;67.11
69324;DHT22;56470;47.350;8.718;2023-02-01T06:33:50;4.86;67.21
69324;DHT22;56470;47.350;8.718;2023-02-01T06:36:16;4.86;67.32
69324;DHT22;56470;47.350;8.718;2023-02-01T06:38:43;4.83;67.29
69324;DHT22;56470;47.350;8.718;2023-02-01T06:41:09;4.86;67.37
69324;DHT22;56470;47.350;8.718;2023-02-01T06:43:37;4.79;67.26
69324;DHT22;56470;47.350;8.718;2023-02-01T06:46:13;4.77;67.34
69324;DHT22;56470;47.350;8.718;2023-02-01T06:48:39;4.80;67.36
69324;DHT22;56470;47.350;8.718;2023-02-01T06:51:04;4.79;67.28
69324;DHT22;56470;47.350;8.718;2023-02-01T06:53:30;4.73;67.40
69324;DHT22;56470;47.350;8.718;2023-02-01T06:56:00;4.79;67.50
69324;DHT22;56470;47.350;8.718;2023-02-01T06:58:32;4.83;67.43
69324;DHT22;56470;47.350;8.718;2023-02-01T07:00:58;4.86;67.39
69324;DHT22;56470;47.350;8.718;2023-02-01T07:03:29;4.91;67.31
69324;DHT22;56470;47.350;8.718;2023-02-01T07:05:56;4.97;67.42
69324;DHT22;56470;47.350;8.718;2023-02-01T07:08:23;5.01;67.31
69324;DHT22;56470;47.350;8.718;2023-02-01T07:10:48;5.07;67.21
69324;DHT22;56470;47.350;8.718;2023-02-01T07:13:14;5.14;67.13
69324;DHT22;56470;47.350;8.718;2023-02-01T07:15:39;5.21;66.96
69324;DHT22;56470;47.350;8.718;2023-02-01T07:18:04;5.25;66.75
69324;DHT22;56470;47.350;8.718;2023-02-01T07:20:30;5.25;66.35
69324;DHT22;56470;47.350;8.718;2023-02-01T07:22:56;5.21;66.28
69324;DHT22;56470;47.350;8.718;2023-02-01T07:25:22;5.28;66.68
69324;DHT22;56470;47.350;8.718;2023-02-01T07:27:47;5.36;66.63
69324;DHT22;56470;47.350;8.718;2023-02-01T07:30:13;5.39;66.61
69324;DHT22;56470;47.350;8.718;2023-02-01T07:32:38;5.46;66.57
69324;DHT22;56470;47.350;8.718;2023-02-01T07:35:04;5.45;66.36
69324;DHT22;56470;47.350;8.718;2023-02-01T07:37:29;5.51;66.39
69324;DHT22;56470;47.350;8.718;2023-02-01T07:39:55;5.52;66.37
69324;DHT22;56470;47.350;8.718;2023-02-01T07:42:21;5.48;66.29
69324;DHT22;56470;47.350;8.718;2023-02-01T07:44:46;5.49;66.34
69324;DHT22;56470;47.350;8.718;2023-02-01T07:47:11;5.49;66.31
69324;DHT22;56470;47.350;8.718;2023-02-01T07:49:37;5.48;66.38
69324;DHT22;56470;47.350;8.718;2023-02-01T07:52:02;5.42;66.32
69324;DHT22;56470;47.350;8.718;2023-02-01T07:54:27;5.39;66.50
69324;DHT22;56470;47.350;8.718;2023-02-01T07:56:54;5.38;66.71
69324;DHT22;56470;47.350;8.718;2023-02-01T07:59:19;5.34;66.94
69324;DHT22;56470;47.350;8.718;2023-02-01T08:01:44;5.36;66.98
69324;DHT22;56470;47.350;8.718;2023-02-01T08:04:11;5.39;67.06
69324;DHT22;56470;47.350;8.718;2023-02-01T08:06:38;5.41;67.07
69324;DHT22;56470;47.350;8.718;2023-02-01T08:09:04;5.42;67.07
69324;DHT22;56470;47.350;8.718;2023-02-01T08:11:30;5.42;67.13
69324;DHT22;56470;47.350;8.718;2023-02-01T08:13:57;5.45;67.27
69324;DHT22;56470;47.350;8.718;2023-02-01T08:16:23;5.46;67.36
69324;DHT22;56470;47.350;8.718;2023-02-01T08:18:49;5.48;67.41
69324;DHT22;56470;47.350;8.718;2023-02-01T08:21:17;5.49;67.44
69324;DHT22;56470;47.350;8.718;2023-02-01T08:23:42;5.48;67.60
69324;DHT22;56470;47.350;8.718;2023-02-01T08:26:12;5.43;67.60
69324;DHT22;56470;47.350;8.718;2023-02-01T08:28:39;5.45;67.58
69324;DHT22;56470;47.350;8.718;2023-02-01T08:31:11;5.42;67.71
69324;DHT22;56470;47.350;8.718;2023-02-01T08:33:37;5.45;67.90
69324;DHT22;56470;47.350;8.718;2023-02-01T08:36:06;5.45;67.90
69324;DHT22;56470;47.350;8.718;2023-02-01T08:38:32;5.48;67.67
69324;DHT22;56470;47.350;8.718;2023-02-01T08:40:57;5.49;67.64
69324;DHT22;56470;47.350;8.718;2023-02-01T08:43:25;5.52;67.65
69324;DHT22;56470;47.350;8.718;2023-02-01T08:45:54;5.52;67.67
69324;DHT22;56470;47.350;8.718;2023-02-01T08:48:19;5.58;67.62
69324;DHT22;56470;47.350;8.718;2023-02-01T08:50:45;5.59;67.59
69324;DHT22;56470;47.350;8.718;2023-02-01T08:53:10;5.56;67.53
69324;DHT22;56470;47.350;8.718;2023-02-01T08:55:38;5.55;67.36
69324;DHT22;56470;47.350;8.718;2023-02-01T08:58:04;5.60;67.45
69324;DHT22;56470;47.350;8.718;2023-02-01T09:00:29;5.65;67.34
69324;DHT22;56470;47.350;8.718;2023-02-01T09:02:55;5.65;67.11
69324;DHT22;56470;47.350;8.718;2023-02-01T09:05:20;5.59;67.17
69324;DHT22;56470;47.350;8.718;2023-02-01T09:07:47;5.58;67.29
69324;DHT22;56470;47.350;8.718;2023-02-01T09:10:12;5.65;67.41
69324;DHT22;56470;47.350;8.718;2023-02-01T09:12:37;5.67;67.44
69324;DHT22;56470;47.350;8.718;2023-02-01T09:15:03;5.70;67.42
69324;DHT22;56470;47.350;8.718;2023-02-01T09:17:32;5.73;67.44
69324;DHT22;56470;47.350;8.718;2023-02-01T09:19:57;5.77;67.46
69324;DHT22;56470;47.350;8.718;2023-02-01T09:22:23;5.80;67.35
69324;DHT22;56470;47.350;8.718;2023-02-01T09:24:48;5.76;67.43
69324;DHT22;56470;47.350;8.718;2023-02-01T09:27:13;5.77;67.48
69324;DHT22;56470;47.350;8.718;2023-02-01T09:29:38;5.81;67.54
69324;DHT22;56470;47.350;8.718;2023-02-01T09:32:04;5.86;67.47
69324;DHT22;56470;47.350;8.718;2023-02-01T09:34:31;5.85;67.50
69324;DHT22;56470;47.350;8.718;2023-02-01T09:36:57;5.87;67.49
69324;DHT22;56470;47.350;8.718;2023-02-01T09:39:22;5.87;67.55
69324;DHT22;56470;47.350;8.718;2023-02-01T09:42:10;5.86;67.53
69324;DHT22;56470;47.350;8.718;2023-02-01T09:47:20;5.91;67.53
69324;DHT22;56470;47.350;8.718;2023-02-01T09:49:57;5.97;67.50
69324;DHT22;56470;47.350;8.718;2023-02-01T09:52:29;5.98;67.45
69324;DHT22;56470;47.350;8.718;2023-02-01T09:55:00;6.03;67.40
69324;DHT22;56470;47.350;8.718;2023-02-01T10:00:24;6.08;67.38
69324;DHT22;56470;47.350;8.718;2023-02-01T10:02:51;6.11;67.37
69324;DHT22;56470;47.350;8.718;2023-02-01T10:05:36;6.10;67.34
69324;DHT22;56470;47.350;8.718;2023-02-01T10:10:48;6.15;67.27
69324;DHT22;56470;47.350;8.718;2023-02-01T10:13:29;6.15;67.25
69324;DHT22;56470;47.350;8.718;2023-02-01T10:18:57;6.20;67.31
69324;DHT22;56470;47.350;8.718;2023-02-01T10:21:41;6.22;67.17
69324;DHT22;56470;47.350;8.718;2023-02-01T10:24:16;6.22;67.26
69324;DHT22;56470;47.350;8.718;2023-02-01T10:26:47;6.22;67.25
69324;DHT22;56470;47.350;8.718;2023-02-01T10:29:19;6.26;67.27
69324;DHT22;56470;47.350;8.718;2023-02-01T10:31:45;6.26;67.24
69324;DHT22;56470;47.350;8.718;2023-02-01T10:34:31;6.29;67.09
69324;DHT22;56470;47.350;8.718;2023-02-01T10:37:01;6.33;67.13
69324;DHT22;56470;47.350;8.718;2023-02-01T10:39:32;6.33;67.20
69324;DHT22;56470;47.350;8.718;2023-02-01T10:41:58;6.38;67.26
69324;DHT22;56470;47.350;8.718;2023-02-01T10:44:28;6.42;67.26
69324;DHT22;56470;47.350;8.718;2023-02-01T10:46:55;6.48;67.25
69324;DHT22;56470;47.350;8.718;2023-02-01T10:49:26;6.52;67.17
69324;DHT22;56470;47.350;8.718;2023-02-01T10:52:20;6.59;66.88
69324;DHT22;56470;47.350;8.718;2023-02-01T10:54:43;6.60;66.69
69324;DHT22;56470;47.350;8.718;2023-02-01T10:57:20;6.63;66.65
69324;DHT22;56470;47.350;8.718;2023-02-01T10:59:46;6.65;66.51
69324;DHT22;56470;47.350;8.718;2023-02-01T11:02:32;6.67;66.30
69324;DHT22;56470;47.350;8.718;2023-02-01T11:05:08;6.76;66.54
69324;DHT22;56470;47.350;8.718;2023-02-01T11:07:36;6.83;66.46
69324;DHT22;56470;47.350;8.718;2023-02-01T11:10:02;6.80;66.10
69324;DHT22;56470;47.350;8.718;2023-02-01T11:12:36;6.80;66.14
69324;DHT22;56470;47.350;8.718;2023-02-01T11:15:18;6.79;66.03
69324;DHT22;56470;47.350;8.718;2023-02-01T11:17:45;6.79;66.10
69324;DHT22;56470;47.350;8.718;2023-02-01T11:20:20;6.76;66.19
69324;DHT22;56470;47.350;8.718;2023-02-01T11:22:56;6.80;66.22
69324;DHT22;56470;47.350;8.718;2023-02-01T11:25:22;6.83;66.18
69324;DHT22;56470;47.350;8.718;2023-02-01T11:27:49;6.81;66.15
69324;DHT22;56470;47.350;8.718;2023-02-01T11:30:18;6.83;66.14
69324;DHT22;56470;47.350;8.718;2023-02-01T11:32:48;6.83;66.20
69324;DHT22;56470;47.350;8.718;2023-02-01T11:35:18;6.83;66.13
69324;DHT22;56470;47.350;8.718;2023-02-01T11:37:50;6.81;65.99
69324;DHT22;56470;47.350;8.718;2023-02-01T11:43:27;6.84;65.49
69324;DHT22;56470;47.350;8.718;2023-02-01T11:46:01;6.94;65.80
69324;DHT22;56470;47.350;8.718;2023-02-01T11:48:32;6.96;65.41
69324;DHT22;56470;47.350;8.718;2023-02-01T11:56:26;7.04;65.70
69324;DHT22;56470;47.350;8.718;2023-02-01T11:59:08;7.08;65.51
69324;DHT22;56470;47.350;8.718;2023-02-01T12:02:02;7.12;65.31
69324;DHT22;56470;47.350;8.718;2023-02-01T12:07:22;7.16;65.14
69324;DHT22;56470;47.350;8.718;2023-02-01T12:09:58;7.25;65.26
69324;DHT22;56470;47.350;8.718;2023-02-01T12:12:31;7.24;65.09
69324;DHT22;56470;47.350;8.718;2023-02-01T12:15:20;7.28;64.87
69324;DHT22;56470;47.350;8.718;2023-02-01T12:17:56;7.31;64.90
69324;DHT22;56470;47.350;8.718;2023-02-01T12:23:06;7.31;64.71
69324;DHT22;56470;47.350;8.718;2023-02-01T12:25:37;7.29;64.57
69324;DHT22;56470;47.350;8.718;2023-02-01T12:30:58;7.26;64.20
69324;DHT22;56470;47.350;8.718;2023-02-01T12:33:40;7.25;64.32
69324;DHT22;56470;47.350;8.718;2023-02-01T12:38:55;7.21;64.39
69324;DHT22;56470;47.350;8.718;2023-02-01T12:44:03;7.22;64.49
69324;DHT22;56470;47.350;8.718;2023-02-01T12:46:43;7.22;64.32
69324;DHT22;56470;47.350;8.718;2023-02-01T12:51:45;7.21;64.48
69324;DHT22;56470;47.350;8.718;2023-02-01T12:57:02;7.24;64.45
69324;DHT22;56470;47.350;8.718;2023-02-01T12:59:37;7.26;64.56
69324;DHT22;56470;47.350;8.718;2023-02-01T13:05:11;7.33;64.45
69324;DHT22;56470;47.350;8.718;2023-02-01T13:07:42;7.35;64.29
69324;DHT22;56470;47.350;8.718;2023-02-01T13:10:18;7.38;64.08
69324;DHT22;56470;47.350;8.718;2023-02-01T13:13:00;7.39;63.91
69324;DHT22;56470;47.350;8.718;2023-02-01T13:15:31;7.42;63.92
69324;DHT22;56470;47.350;8.718;2023-02-01T13:18:01;7.46;63.64
69324;DHT22;56470;47.350;8.718;2023-02-01T13:20:31;7.48;63.45
69324;DHT22;56470;47.350;8.718;2023-02-01T13:23:05;7.50;63.47
69324;DHT22;56470;47.350;8.718;2023-02-01T13:25:47;7.49;63.52
69324;DHT22;56470;47.350;8.718;2023-02-01T13:28:19;7.50;63.51
69324;DHT22;56470;47.350;8.718;2023-02-01T13:36:51;7.58;63.31
69324;DHT22;56470;47.350;8.718;2023-02-01T13:42:11;7.52;63.27
69324;DHT22;56470;47.350;8.718;2023-02-01T13:44:41;7.55;63.55
69324;DHT22;56470;47.350;8.718;2023-02-01T13:47:20;7.52;63.64
69324;DHT22;56470;47.350;8.718;2023-02-01T13:49:46;7.56;63.66
69324;DHT22;56470;47.350;8.718;2023-02-01T13:52:26;7.55;63.37
69324;DHT22;56470;47.350;8.718;2023-02-01T13:57:50;7.55;63.23
69324;DHT22;56470;47.350;8.718;2023-02-01T14:00:36;7.52;62.40
69324;DHT22;56470;47.350;8.718;2023-02-01T14:03:10;7.52;62.64
69324;DHT22;56470;47.350;8.718;2023-02-01T14:10:53;7.56;62.37
69324;DHT22;56470;47.350;8.718;2023-02-01T14:13:39;7.55;62.68
69324;DHT22;56470;47.350;8.718;2023-02-01T14:21:32;7.55;62.01
69324;DHT22;56470;47.350;8.718;2023-02-01T14:29:20;7.52;62.53
69324;DHT22;56470;47.350;8.718;2023-02-01T14:36:51;7.42;62.89
69324;DHT22;56470;47.350;8.718;2023-02-01T14:39:27;7.45;63.14
69324;DHT22;56470;47.350;8.718;2023-02-01T14:41:56;7.45;63.08
69324;DHT22;56470;47.350;8.718;2023-02-01T14:44:33;7.42;62.97
69324;DHT22;56470;47.350;8.718;2023-02-01T14:47:26;7.42;63.14
69324;DHT22;56470;47.350;8.718;2023-02-01T14:50:41;7.42;63.17
69324;DHT22;56470;47.350;8.718;2023-02-01T14:52:46;7.45;63.28
69324;DHT22;56470;47.350;8.718;2023-02-01T14:55:18;7.42;63.20
69324;DHT22;56470;47.350;8.718;2023-02-01T14:57:47;7.45;63.25
69324;DHT22;56470;47.350;8.718;2023-02-01T15:00:27;7.41;63.20
69324;DHT22;56470;47.350;8.718;2023-02-01T15:02:55;7.43;63.21
69324;DHT22;56470;47.350;8.718;2023-02-01T15:07:52;7.45;63.23
69324;DHT22;56470;47.350;8.718;2023-02-01T15:10:19;7.42;63.26
69324;DHT22;56470;47.350;8.718;2023-02-01T15:12:45;7.45;63.24
69324;DHT22;56470;47.350;8.718;2023-02-01T15:15:24;7.41;63.14
69324;DHT22;56470;47.350;8.718;2023-02-01T15:17:57;7.36;63.10
69324;DHT22;56470;47.350;8.718;2023-02-01T15:20:27;7.41;63.24
69324;DHT22;56470;47.350;8.718;2023-02-01T15:23:05;7.38;62.89
69324;DHT22;56470;47.350;8.718;2023-02-01T15:25:36;7.36;63.01
69324;DHT22;56470;47.350;8.718;2023-02-01T15:28:04;7.38;62.91
69324;DHT22;56470;47.350;8.718;2023-02-01T15:30:33;7.38;62.80
69324;DHT22;56470;47.350;8.718;2023-02-01T15:33:15;7.35;62.94
69324;DHT22;56470;47.350;8.718;2023-02-01T15:35:44;7.33;62.65
69324;DHT22;56470;47.350;8.718;2023-02-01T15:46:34;7.19;61.51
69324;DHT22;56470;47.350;8.718;2023-02-01T15:49:01;7.16;61.48
69324;DHT22;56470;47.350;8.718;2023-02-01T15:51:30;7.14;61.70
69324;DHT22;56470;47.350;8.718;2023-02-01T15:54:07;7.12;61.28
69324;DHT22;56470;47.350;8.718;2023-02-01T15:56:41;7.12;61.27
69324;DHT22;56470;47.350;8.718;2023-02-01T15:59:15;7.08;60.59
69324;DHT22;56470;47.350;8.718;2023-02-01T16:01:41;7.09;61.13
69324;DHT22;56470;47.350;8.718;2023-02-01T16:04:16;7.08;60.70
69324;DHT22;56470;47.350;8.718;2023-02-01T16:06:49;7.05;61.22
69324;DHT22;56470;47.350;8.718;2023-02-01T16:09:16;7.05;61.41
69324;DHT22;56470;47.350;8.718;2023-02-01T16:11:56;7.04;60.23
69324;DHT22;56470;47.350;8.718;2023-02-01T16:14:22;7.03;60.96
69324;DHT22;56470;47.350;8.718;2023-02-01T16:16:48;7.01;60.57
69324;DHT22;56470;47.350;8.718;2023-02-01T16:19:14;7.00;60.54
69324;DHT22;56470;47.350;8.718;2023-02-01T16:21:39;6.94;60.26
69324;DHT22;56470;47.350;8.718;2023-02-01T16:24:05;6.96;60.61
69324;DHT22;56470;47.350;8.718;2023-02-01T16:26:31;6.96;60.98
69324;DHT22;56470;47.350;8.718;2023-02-01T16:28:58;6.97;60.87
69324;DHT22;56470;47.350;8.718;2023-02-01T16:31:29;7.00;60.92
69324;DHT22;56470;47.350;8.718;2023-02-01T16:33:55;6.98;60.73
69324;DHT22;56470;47.350;8.718;2023-02-01T16:36:21;7.01;61.35
69324;DHT22;56470;47.350;8.718;2023-02-01T16:38:47;7.05;60.52
69324;DHT22;56470;47.350;8.718;2023-02-01T16:41:16;7.04;60.73
69324;DHT22;56470;47.350;8.718;2023-02-01T16:43:41;7.04;60.73
69324;DHT22;56470;47.350;8.718;2023-02-01T16:46:14;7.05;60.95
69324;DHT22;56470;47.350;8.718;2023-02-01T16:48:41;7.03;60.60
69324;DHT22;56470;47.350;8.718;2023-02-01T16:51:13;7.03;60.94
69324;DHT22;56470;47.350;8.718;2023-02-01T16:53:39;7.00;60.56
69324;DHT22;56470;47.350;8.718;2023-02-01T16:56:19;7.01;60.72
69324;DHT22;56470;47.350;8.718;2023-02-01T16:58:45;7.01;60.60
69324;DHT22;56470;47.350;8.718;2023-02-01T17:01:13;7.00;60.66
69324;DHT22;56470;47.350;8.718;2023-02-01T17:03:41;6.97;60.79
69324;DHT22;56470;47.350;8.718;2023-02-01T17:06:10;6.96;60.61
69324;DHT22;56470;47.350;8.718;2023-02-01T17:08:39;6.94;60.54
69324;DHT22;56470;47.350;8.718;2023-02-01T17:11:05;6.93;60.47
69324;DHT22;56470;47.350;8.718;2023-02-01T17:13:32;6.88;60.62
69324;DHT22;56470;47.350;8.718;2023-02-01T17:16:01;6.91;60.72
69324;DHT22;56470;47.350;8.718;2023-02-01T17:18:28;6.93;60.71
69324;DHT22;56470;47.350;8.718;2023-02-01T17:20:57;6.91;60.78
69324;DHT22;56470;47.350;8.718;2023-02-01T17:23:23;6.88;60.45
69324;DHT22;56470;47.350;8.718;2023-02-01T17:25:48;6.90;60.56
69324;DHT22;56470;47.350;8.718;2023-02-01T17:28:14;6.90;60.63
69324;DHT22;56470;47.350;8.718;2023-02-01T17:30:39;6.90;60.40
69324;DHT22;56470;47.350;8.718;2023-02-01T17:33:16;6.88;60.02
69324;DHT22;56470;47.350;8.718;2023-02-01T17:35:43;6.90;60.08
69324;DHT22;56470;47.350;8.718;2023-02-01T17:38:11;6.93;60.13
69324;DHT22;56470;47.350;8.718;2023-02-01T17:40:37;6.94;60.20
69324;DHT22;56470;47.350;8.718;2023-02-01T17:43:02;6.94;60.05